createdAt,value
2022-09-04T00:00:03.609Z,0.70
2022-09-04T00:00:38.414Z,0.40
2022-09-04T00:01:09.638Z,0.50
2022-09-04T00:01:45.098Z,0.55
2022-09-04T00:02:25.435Z,0.70
2022-09-04T00:03:07.689Z,0.60
2022-09-04T00:03:39.589Z,0.52
2022-09-04T00:04:15.476Z,0.70
2022-09-04T00:04:46.867Z,0.60
2022-09-04T00:05:17.236Z,0.60
2022-09-04T00:05:49.336Z,0.35
2022-09-04T00:06:19.381Z,0.30
2022-09-04T00:06:49.671Z,0.50
2022-09-04T00:07:19.052Z,0.50
2022-09-04T00:07:57.706Z,0.40
2022-09-04T00:08:52.576Z,0.70
2022-09-04T00:09:23.831Z,0.50
2022-09-04T00:09:53.853Z,0.40
2022-09-04T00:10:22.346Z,0.57
2022-09-04T00:10:53.724Z,0.60
2022-09-04T00:11:29.478Z,0.60
2022-09-04T00:11:59.517Z,0.50
2022-09-04T00:12:26.950Z,0.60
2022-09-04T00:12:54.755Z,0.50
2022-09-04T00:13:22.031Z,1.20
2022-09-04T00:13:51.637Z,3.50
2022-09-04T00:14:17.722Z,4.50
2022-09-04T00:14:45.860Z,6.88
2022-09-04T00:15:15.470Z,10.52
2022-09-04T00:15:43.739Z,15.48
2022-09-04T00:16:10.222Z,11.52
2022-09-04T00:16:43.105Z,17.77
2022-09-04T00:17:11.063Z,22.25
2022-09-04T00:17:40.308Z,43.75
2022-09-04T00:18:08.321Z,46.63
2022-09-04T00:18:37.369Z,31.27
2022-09-04T00:19:08.450Z,18.77
2022-09-04T00:19:36.652Z,10.85
2022-09-04T00:20:02.683Z,6.45
2022-09-04T00:20:34.121Z,6.47
2022-09-04T00:21:01.586Z,1.45
2022-09-04T00:21:34.445Z,0.77
2022-09-04T00:21:58.729Z,2.00
2022-09-04T00:22:33.593Z,2.38
2022-09-04T00:23:01.980Z,1.02
2022-09-04T00:23:31.621Z,0.77
2022-09-04T00:23:58.038Z,0.90
2022-09-04T00:24:24.714Z,0.65
2022-09-04T00:24:53.879Z,0.60
2022-09-04T00:25:25.385Z,0.40
2022-09-04T00:25:57.758Z,0.70
2022-09-04T00:26:30.708Z,0.63
2022-09-04T00:26:59.381Z,0.73
2022-09-04T00:27:24.884Z,0.50
2022-09-04T00:27:52.184Z,0.68
2022-09-04T00:28:26.751Z,0.60
2022-09-04T00:28:50.982Z,0.50
2022-09-04T00:29:20.212Z,0.50
2022-09-04T00:29:49.008Z,0.43
2022-09-04T00:30:15.280Z,0.63
2022-09-04T00:30:46.260Z,0.55
2022-09-04T00:31:25.819Z,0.77
2022-09-04T00:31:53.149Z,0.57
2022-09-04T00:32:24.808Z,0.63
2022-09-04T00:32:55.345Z,0.77
2022-09-04T00:33:23.686Z,0.52
2022-09-04T00:33:54.216Z,0.40
2022-09-04T00:34:25.762Z,0.52
2022-09-04T00:35:05.912Z,0.50
2022-09-04T00:35:31.284Z,0.57
2022-09-04T00:35:58.658Z,0.60
2022-09-04T00:36:25.338Z,0.50
2022-09-04T00:36:51.559Z,1.08
2022-09-04T00:37:17.316Z,1.08
2022-09-04T00:37:44.251Z,0.50
2022-09-04T00:38:11.801Z,0.52
2022-09-04T00:39:26.584Z,0.52
2022-09-04T00:39:54.653Z,0.63
2022-09-04T00:40:25.263Z,0.60
2022-09-04T00:40:57.722Z,0.50
2022-09-04T00:41:29.379Z,0.70
2022-09-04T00:42:05.768Z,0.50
2022-09-04T00:42:43.396Z,0.50
2022-09-04T00:43:27.948Z,0.60
2022-09-04T00:44:07.796Z,0.47
2022-09-04T00:44:45.783Z,0.65
2022-09-04T00:45:16.944Z,6.35
2022-09-04T00:45:58.388Z,3.33
2022-09-04T00:46:59.118Z,2.00
2022-09-04T00:47:49.353Z,2.00
2022-09-04T00:48:28.359Z,2.05
2022-09-04T00:49:20.244Z,4.45
2022-09-04T00:50:19.848Z,2.80
2022-09-04T00:51:06.825Z,3.67
2022-09-04T00:51:38.356Z,2.10
2022-09-04T00:52:12.804Z,1.30
2022-09-04T00:52:58.463Z,1.10
2022-09-04T00:53:41.755Z,2.47
2022-09-04T00:54:32.845Z,6.75
2022-09-04T00:55:08.954Z,1.30
2022-09-04T00:55:50.689Z,0.85
2022-09-04T00:56:31.453Z,0.55
2022-09-04T00:57:21.088Z,0.65
2022-09-04T00:58:07.959Z,0.50
2022-09-04T00:58:47.099Z,0.50
2022-09-04T00:59:20.490Z,0.50
2022-09-04T01:00:04.797Z,0.40
2022-09-04T01:00:27.930Z,0.80
2022-09-04T01:00:50.442Z,0.50
2022-09-04T01:01:19.204Z,0.40
2022-09-04T01:01:42.336Z,0.40
2022-09-04T01:02:12.458Z,0.57
2022-09-04T01:02:54.314Z,0.63
2022-09-04T01:03:31.682Z,0.60
2022-09-04T01:04:17.489Z,0.60
2022-09-04T01:04:43.223Z,0.60
2022-09-04T01:05:25.670Z,0.45
2022-09-04T01:06:03.980Z,0.60
2022-09-04T01:06:35.551Z,0.60
2022-09-04T01:07:21.193Z,0.50
2022-09-04T01:07:56.818Z,0.60
2022-09-04T01:08:32.744Z,0.80
2022-09-04T01:09:11.008Z,0.60
2022-09-04T01:09:48.557Z,0.65
2022-09-04T01:10:24.257Z,0.75
2022-09-04T01:11:00.130Z,0.50
2022-09-04T01:11:33.902Z,0.45
2022-09-04T01:12:06.455Z,0.52
2022-09-04T01:12:37.729Z,0.45
2022-09-04T01:13:07.898Z,0.40
2022-09-04T01:13:38.558Z,0.40
2022-09-04T01:14:10.781Z,0.50
2022-09-04T01:14:41.920Z,0.50
2022-09-04T01:15:14.465Z,0.60
2022-09-04T01:15:44.982Z,0.68
2022-09-04T01:16:11.181Z,0.50
2022-09-04T01:16:37.623Z,0.60
2022-09-04T01:17:10.145Z,0.50
2022-09-04T01:17:37.153Z,0.47
2022-09-04T01:18:08.102Z,0.98
2022-09-04T01:18:38.152Z,0.50
2022-09-04T01:19:10.989Z,0.60
2022-09-04T01:19:49.738Z,0.50
2022-09-04T01:20:20.333Z,0.47
2022-09-04T01:21:06.363Z,0.60
2022-09-04T01:22:01.364Z,0.50
2022-09-04T01:22:40.470Z,0.80
2022-09-04T01:23:16.644Z,0.55
2022-09-04T01:23:56.304Z,0.65
2022-09-04T01:24:40.040Z,0.60
2022-09-04T01:25:08.541Z,0.50
2022-09-04T01:25:52.116Z,0.75
2022-09-04T01:26:23.319Z,0.60
2022-09-04T01:26:50.050Z,0.40
2022-09-04T01:27:22.648Z,0.50
2022-09-04T01:27:54.570Z,0.50
2022-09-04T01:28:27.084Z,0.60
2022-09-04T01:29:01.674Z,0.40
2022-09-04T01:29:33.019Z,0.50
2022-09-04T01:30:06.798Z,0.60
2022-09-04T01:30:35.117Z,0.60
2022-09-04T01:31:04.423Z,0.50
2022-09-04T01:31:36.541Z,0.45
2022-09-04T01:32:09.064Z,0.60
2022-09-04T01:32:43.791Z,0.65
2022-09-04T01:33:12.986Z,0.47
2022-09-04T01:33:46.111Z,0.55
2022-09-04T01:34:22.805Z,0.60
2022-09-04T01:34:53.861Z,0.63
2022-09-04T01:35:25.657Z,0.50
2022-09-04T01:35:55.810Z,0.70
2022-09-04T01:36:28.823Z,0.60
2022-09-04T01:36:59.778Z,0.50
2022-09-04T01:37:34.609Z,0.47
2022-09-04T01:38:03.092Z,0.55
2022-09-04T01:38:33.695Z,0.50
2022-09-04T01:38:58.653Z,0.77
2022-09-04T01:39:24.907Z,0.63
2022-09-04T01:39:57.230Z,0.88
2022-09-04T01:40:35.174Z,0.75
2022-09-04T01:41:07.256Z,0.60
2022-09-04T01:41:38.203Z,0.63
2022-09-04T01:42:05.322Z,0.52
2022-09-04T01:42:37.620Z,0.60
2022-09-04T01:43:05.774Z,0.55
2022-09-04T01:43:27.730Z,0.50
2022-09-04T01:43:50.829Z,0.60
2022-09-04T01:44:14.383Z,0.55
2022-09-04T01:44:36.908Z,0.50
2022-09-04T01:44:58.534Z,0.60
2022-09-04T01:45:33.388Z,0.55
2022-09-04T01:46:38.157Z,0.70
2022-09-04T01:47:11.154Z,0.55
2022-09-04T01:47:43.313Z,0.57
2022-09-04T01:48:10.371Z,0.52
2022-09-04T01:48:45.063Z,0.50
2022-09-04T01:49:16.381Z,0.50
2022-09-04T01:49:42.682Z,0.50
2022-09-04T01:50:11.048Z,0.52
2022-09-04T01:50:32.990Z,0.55
2022-09-04T01:51:01.872Z,0.50
2022-09-04T01:51:30.475Z,0.80
2022-09-04T01:52:03.139Z,0.50
2022-09-04T01:52:38.765Z,0.75
2022-09-04T01:53:07.794Z,0.65
2022-09-04T01:53:36.874Z,0.60
2022-09-04T01:54:12.684Z,0.68
2022-09-04T01:54:47.304Z,0.60
2022-09-04T01:55:20.111Z,0.50
2022-09-04T01:55:49.548Z,0.50
2022-09-04T01:56:20.841Z,0.57
2022-09-04T01:56:48.337Z,0.75
2022-09-04T01:57:19.760Z,0.63
2022-09-04T01:57:56.173Z,0.73
2022-09-04T01:58:29.541Z,0.50
2022-09-04T01:59:00.046Z,0.63
2022-09-04T01:59:28.523Z,0.90
2022-09-04T02:00:02.211Z,0.70
2022-09-04T02:00:30.109Z,0.50
2022-09-04T02:01:01.331Z,0.60
2022-09-04T02:01:35.560Z,0.70
2022-09-04T02:02:04.535Z,0.77
2022-09-04T02:02:30.969Z,0.82
2022-09-04T02:03:00.542Z,0.88
2022-09-04T02:03:27.465Z,0.55
2022-09-04T02:03:57.531Z,0.65
2022-09-04T02:04:26.555Z,0.52
2022-09-04T02:04:56.331Z,0.80
2022-09-04T02:05:26.321Z,0.55
2022-09-04T02:06:01.615Z,0.60
2022-09-04T02:06:33.002Z,0.60
2022-09-04T02:07:10.049Z,0.80
2022-09-04T02:07:36.162Z,0.40
2022-09-04T02:08:12.079Z,0.60
2022-09-04T02:08:49.734Z,0.60
2022-09-04T02:09:26.345Z,0.50
2022-09-04T02:09:58.638Z,0.73
2022-09-04T02:10:30.155Z,0.77
2022-09-04T02:11:00.126Z,0.52
2022-09-04T02:11:27.819Z,0.75
2022-09-04T02:12:01.406Z,0.70
2022-09-04T02:12:38.453Z,0.50
2022-09-04T02:13:15.213Z,0.60
2022-09-04T02:13:51.440Z,0.60
2022-09-04T02:14:35.565Z,0.70
2022-09-04T02:15:06.540Z,0.85
2022-09-04T02:15:37.555Z,0.80
2022-09-04T02:16:14.388Z,0.40
2022-09-04T02:16:45.727Z,0.60
2022-09-04T02:17:10.952Z,1.08
2022-09-04T02:17:41.680Z,0.80
2022-09-04T02:18:13.586Z,0.52
2022-09-04T02:18:50.287Z,0.80
2022-09-04T02:19:24.065Z,0.68
2022-09-04T02:20:03.608Z,0.55
2022-09-04T02:20:28.681Z,0.60
2022-09-04T02:20:57.538Z,0.60
2022-09-04T02:21:26.439Z,0.70
2022-09-04T02:21:56.036Z,0.70
2022-09-04T02:22:27.604Z,0.80
2022-09-04T02:22:59.032Z,0.90
2022-09-04T02:23:30.004Z,0.80
2022-09-04T02:24:05.698Z,0.77
2022-09-04T02:24:34.346Z,0.68
2022-09-04T02:25:05.634Z,0.55
2022-09-04T02:25:31.319Z,0.60
2022-09-04T02:26:08.512Z,0.70
2022-09-04T02:26:37.527Z,0.80
2022-09-04T02:27:09.201Z,0.68
2022-09-04T02:27:40.900Z,0.70
2022-09-04T02:28:18.061Z,0.90
2022-09-04T02:28:53.189Z,0.60
2022-09-04T02:29:26.085Z,0.75
2022-09-04T02:29:58.222Z,0.50
2022-09-04T02:30:21.077Z,0.70
2022-09-04T02:30:54.348Z,0.40
2022-09-04T02:31:25.788Z,0.70
2022-09-04T02:31:54.578Z,0.68
2022-09-04T02:32:20.585Z,0.88
2022-09-04T02:32:50.391Z,0.68
2022-09-04T02:33:19.109Z,0.52
2022-09-04T02:33:49.098Z,0.60
2022-09-04T02:34:19.874Z,0.70
2022-09-04T02:34:50.900Z,0.65
2022-09-04T02:35:20.318Z,0.77
2022-09-04T02:35:47.165Z,0.68
2022-09-04T02:36:18.528Z,0.65
2022-09-04T02:36:46.588Z,0.55
2022-09-04T02:37:21.478Z,0.60
2022-09-04T02:37:58.980Z,0.90
2022-09-04T02:38:32.410Z,0.68
2022-09-04T02:39:04.817Z,0.95
2022-09-04T02:39:44.736Z,0.57
2022-09-04T02:40:15.748Z,0.75
2022-09-04T02:40:46.747Z,0.77
2022-09-04T02:41:20.204Z,0.82
2022-09-04T02:41:51.056Z,0.60
2022-09-04T02:42:23.899Z,0.80
2022-09-04T02:42:59.432Z,0.70
2022-09-04T02:43:35.660Z,0.77
2022-09-04T02:44:10.424Z,0.60
2022-09-04T02:44:45.473Z,0.80
2022-09-04T02:45:19.443Z,0.50
2022-09-04T02:45:46.038Z,0.80
2022-09-04T02:46:16.771Z,0.50
2022-09-04T02:46:50.362Z,0.70
2022-09-04T02:47:23.153Z,0.80
2022-09-04T02:47:50.450Z,0.82
2022-09-04T02:48:18.429Z,0.73
2022-09-04T02:48:57.533Z,0.57
2022-09-04T02:49:29.236Z,0.55
2022-09-04T02:50:01.877Z,0.52
2022-09-04T02:50:40.305Z,0.68
2022-09-04T02:51:18.532Z,0.70
2022-09-04T02:51:54.589Z,0.50
2022-09-04T02:52:33.480Z,0.85
2022-09-04T02:53:08.229Z,0.70
2022-09-04T02:53:40.776Z,0.50
2022-09-04T02:54:11.064Z,0.50
2022-09-04T02:54:49.634Z,0.50
2022-09-04T02:55:20.772Z,0.70
2022-09-04T02:55:58.250Z,0.73
2022-09-04T02:56:31.273Z,0.57
2022-09-04T02:57:09.227Z,0.47
2022-09-04T02:57:44.607Z,0.50
2022-09-04T02:58:15.397Z,0.60
2022-09-04T02:58:49.849Z,0.50
2022-09-04T02:59:26.659Z,0.50
2022-09-04T02:59:59.030Z,0.57
2022-09-04T03:00:23.840Z,0.90
2022-09-04T03:00:55.116Z,0.60
2022-09-04T03:01:22.365Z,0.75
2022-09-04T03:01:51.964Z,0.65
2022-09-04T03:02:22.698Z,0.70
2022-09-04T03:02:53.104Z,0.50
2022-09-04T03:03:20.852Z,0.40
2022-09-04T03:03:48.047Z,0.60
2022-09-04T03:04:15.785Z,0.60
2022-09-04T03:04:49.970Z,0.70
2022-09-04T03:05:20.032Z,0.90
2022-09-04T03:05:50.180Z,0.60
2022-09-04T03:06:17.217Z,0.60
2022-09-04T03:06:50.500Z,0.68
2022-09-04T03:07:17.807Z,0.70
2022-09-04T03:07:48.925Z,0.70
2022-09-04T03:08:18.329Z,0.60
2022-09-04T03:08:47.034Z,0.60
2022-09-04T03:09:15.121Z,0.60
2022-09-04T03:09:41.620Z,0.55
2022-09-04T03:10:12.451Z,0.60
2022-09-04T03:10:41.564Z,0.50
2022-09-04T03:11:12.484Z,0.60
2022-09-04T03:11:40.954Z,0.50
2022-09-04T03:12:29.608Z,0.60
2022-09-04T03:12:56.316Z,0.50
2022-09-04T03:13:26.422Z,0.70
2022-09-04T03:13:52.843Z,0.63
2022-09-04T03:14:24.505Z,0.60
2022-09-04T03:14:54.082Z,0.90
2022-09-04T03:15:23.777Z,0.60
2022-09-04T03:15:51.790Z,0.50
2022-09-04T03:16:21.997Z,0.55
2022-09-04T03:16:48.299Z,0.70
2022-09-04T03:17:17.126Z,0.90
2022-09-04T03:17:48.333Z,0.52
2022-09-04T03:18:17.305Z,0.57
2022-09-04T03:18:59.123Z,0.50
2022-09-04T03:19:30.425Z,0.60
2022-09-04T03:19:57.090Z,0.70
2022-09-04T03:20:23.069Z,0.75
2022-09-04T03:20:52.297Z,0.60
2022-09-04T03:21:20.988Z,0.50
2022-09-04T03:21:48.934Z,0.60
2022-09-04T03:22:19.346Z,0.60
2022-09-04T03:22:48.852Z,0.55
2022-09-04T03:23:19.573Z,0.60
2022-09-04T03:23:49.647Z,0.60
2022-09-04T03:24:17.417Z,0.63
2022-09-04T03:24:59.956Z,0.70
2022-09-04T03:25:57.613Z,0.88
2022-09-04T03:26:23.446Z,0.60
2022-09-04T03:26:50.688Z,0.60
2022-09-04T03:27:16.799Z,1.10
2022-09-04T03:27:39.603Z,0.80
2022-09-04T03:28:02.031Z,0.60
2022-09-04T03:28:35.600Z,0.60
2022-09-04T03:29:10.034Z,0.70
2022-09-04T03:29:43.740Z,0.68
2022-09-04T03:30:08.140Z,0.50
2022-09-04T03:30:35.158Z,0.50
2022-09-04T03:31:01.292Z,0.90
2022-09-04T03:31:32.072Z,0.80
2022-09-04T03:32:15.647Z,0.52
2022-09-04T03:32:48.711Z,0.73
2022-09-04T03:33:19.112Z,0.80
2022-09-04T03:33:48.012Z,0.50
2022-09-04T03:34:33.468Z,0.68
2022-09-04T03:35:05.210Z,0.50
2022-09-04T03:35:35.500Z,0.40
2022-09-04T03:36:03.045Z,0.73
2022-09-04T03:36:36.188Z,0.70
2022-09-04T03:37:16.240Z,0.80
2022-09-04T03:37:58.826Z,0.65
2022-09-04T03:38:29.622Z,0.50
2022-09-04T03:39:02.681Z,0.90
2022-09-04T03:39:30.739Z,0.55
2022-09-04T03:40:08.849Z,0.68
2022-09-04T03:40:37.509Z,0.82
2022-09-04T03:41:13.158Z,0.80
2022-09-04T03:41:45.187Z,0.77
2022-09-04T03:42:19.888Z,0.73
2022-09-04T03:42:56.131Z,0.60
2022-09-04T03:43:51.330Z,0.80
2022-09-04T03:44:24.956Z,0.82
2022-09-04T03:45:02.601Z,0.50
2022-09-04T03:45:33.119Z,0.80
2022-09-04T03:46:04.008Z,0.50
2022-09-04T03:46:37.836Z,0.80
2022-09-04T03:47:11.423Z,0.85
2022-09-04T03:47:41.628Z,0.60
2022-09-04T03:48:21.335Z,0.63
2022-09-04T03:49:05.536Z,0.70
2022-09-04T03:49:42.739Z,0.68
2022-09-04T03:50:17.246Z,0.88
2022-09-04T03:50:48.744Z,0.50
2022-09-04T03:51:19.149Z,0.70
2022-09-04T03:51:55.580Z,1.00
2022-09-04T03:52:26.656Z,0.70
2022-09-04T03:52:57.988Z,0.90
2022-09-04T03:53:30.103Z,0.50
2022-09-04T03:54:02.221Z,0.70
2022-09-04T03:54:42.367Z,0.50
2022-09-04T03:55:28.972Z,0.70
2022-09-04T03:56:11.082Z,0.80
2022-09-04T03:56:46.879Z,0.85
2022-09-04T03:57:40.915Z,0.80
2022-09-04T03:58:14.578Z,0.65
2022-09-04T03:58:44.177Z,0.60
2022-09-04T03:59:09.216Z,0.68
2022-09-04T03:59:56.716Z,0.90
2022-09-04T04:00:20.688Z,0.55
2022-09-04T04:00:57.020Z,0.80
2022-09-04T04:01:29.454Z,0.75
2022-09-04T04:01:59.080Z,0.90
2022-09-04T04:02:30.246Z,0.50
2022-09-04T04:03:15.653Z,0.70
2022-09-04T04:03:56.214Z,0.65
2022-09-04T04:05:00.347Z,0.80
2022-09-04T04:05:48.832Z,0.50
2022-09-04T04:06:24.284Z,0.60
2022-09-04T04:06:52.841Z,0.70
2022-09-04T04:07:28.264Z,0.80
2022-09-04T04:08:05.492Z,0.70
2022-09-04T04:08:37.209Z,0.60
2022-09-04T04:09:20.089Z,0.52
2022-09-04T04:09:55.624Z,0.90
2022-09-04T04:10:31.165Z,0.82
2022-09-04T04:11:00.355Z,0.60
2022-09-04T04:11:43.721Z,0.65
2022-09-04T04:12:19.699Z,0.60
2022-09-04T04:13:15.201Z,0.70
2022-09-04T04:13:55.112Z,0.70
2022-09-04T04:14:38.197Z,0.80
2022-09-04T04:15:13.815Z,0.50
2022-09-04T04:15:48.102Z,0.47
2022-09-04T04:16:24.769Z,0.68
2022-09-04T04:17:00.111Z,0.70
2022-09-04T04:17:37.828Z,1.00
2022-09-04T04:18:31.935Z,0.70
2022-09-04T04:19:27.740Z,0.80
2022-09-04T04:20:06.926Z,0.70
2022-09-04T04:20:41.099Z,0.77
2022-09-04T04:21:14.589Z,0.50
2022-09-04T04:21:55.836Z,0.80
2022-09-04T04:22:34.133Z,0.80
2022-09-04T04:23:11.348Z,0.65
2022-09-04T04:24:21.941Z,0.68
2022-09-04T04:25:03.121Z,0.80
2022-09-04T04:25:48.802Z,0.73
2022-09-04T04:26:21.601Z,0.70
2022-09-04T04:26:59.296Z,0.70
2022-09-04T04:27:36.121Z,0.80
2022-09-04T04:28:19.816Z,0.60
2022-09-04T04:29:10.141Z,0.70
2022-09-04T04:29:51.988Z,0.68
2022-09-04T04:30:16.001Z,0.70
2022-09-04T04:30:49.347Z,0.60
2022-09-04T04:31:20.812Z,0.70
2022-09-04T04:32:11.696Z,0.60
2022-09-04T04:32:51.146Z,0.73
2022-09-04T04:33:32.429Z,0.57
2022-09-04T04:34:03.805Z,0.65
2022-09-04T04:34:35.165Z,0.60
2022-09-04T04:35:08.712Z,0.68
2022-09-04T04:35:39.537Z,0.70
2022-09-04T04:36:10.051Z,0.80
2022-09-04T04:36:37.813Z,0.80
2022-09-04T04:37:07.475Z,0.70
2022-09-04T04:37:44.373Z,0.80
2022-09-04T04:38:18.425Z,0.73
2022-09-04T04:38:53.691Z,0.73
2022-09-04T04:39:29.996Z,0.60
2022-09-04T04:39:58.764Z,0.75
2022-09-04T04:40:32.611Z,0.80
2022-09-04T04:41:05.332Z,0.73
2022-09-04T04:42:00.550Z,0.82
2022-09-04T04:42:29.979Z,0.82
2022-09-04T04:42:59.559Z,0.80
2022-09-04T04:43:31.243Z,0.40
2022-09-04T04:44:07.041Z,0.60
2022-09-04T04:45:00.935Z,0.80
2022-09-04T04:45:47.616Z,0.50
2022-09-04T04:46:19.275Z,0.67
2022-09-04T04:46:55.914Z,0.60
2022-09-04T04:47:34.999Z,0.85
2022-09-04T04:48:18.258Z,0.70
2022-09-04T04:49:00.016Z,0.60
2022-09-04T04:49:45.506Z,0.83
2022-09-04T04:50:16.172Z,0.70
2022-09-04T04:50:54.200Z,0.70
2022-09-04T04:51:31.754Z,0.70
2022-09-04T04:52:17.676Z,0.70
2022-09-04T04:52:49.317Z,0.60
2022-09-04T04:53:19.091Z,0.70
2022-09-04T04:53:50.520Z,0.60
2022-09-04T04:54:30.275Z,0.60
2022-09-04T04:55:06.201Z,0.85
2022-09-04T04:55:43.003Z,0.65
2022-09-04T04:56:14.087Z,0.60
2022-09-04T04:56:48.149Z,0.60
2022-09-04T04:57:23.120Z,0.70
2022-09-04T04:57:56.396Z,0.70
2022-09-04T04:58:32.345Z,0.45
2022-09-04T04:59:08.897Z,0.90
2022-09-04T04:59:38.085Z,0.63
2022-09-04T05:00:08.799Z,0.88
2022-09-04T05:00:40.110Z,0.80
2022-09-04T05:01:11.841Z,0.60
2022-09-04T05:01:44.465Z,0.70
2022-09-04T05:02:16.994Z,0.70
2022-09-04T05:02:49.142Z,0.60
2022-09-04T05:03:22.355Z,0.80
2022-09-04T05:03:59.460Z,0.60
2022-09-04T05:04:29.987Z,0.50
2022-09-04T05:05:02.245Z,0.60
2022-09-04T05:05:46.933Z,0.70
2022-09-04T05:06:14.792Z,0.50
2022-09-04T05:06:41.750Z,0.65
2022-09-04T05:07:11.869Z,0.55
2022-09-04T05:07:40.595Z,0.68
2022-09-04T05:08:09.779Z,0.60
2022-09-04T05:08:45.580Z,0.88
2022-09-04T05:09:15.217Z,0.60
2022-09-04T05:09:44.660Z,0.63
2022-09-04T05:10:14.462Z,1.08
2022-09-04T05:10:41.543Z,0.63
2022-09-04T05:11:10.621Z,0.60
2022-09-04T05:11:41.039Z,0.80
2022-09-04T05:12:09.245Z,0.70
2022-09-04T05:12:44.264Z,0.80
2022-09-04T05:13:17.755Z,0.60
2022-09-04T05:13:51.664Z,0.70
2022-09-04T05:14:31.739Z,0.63
2022-09-04T05:15:01.247Z,0.73
2022-09-04T05:15:32.793Z,0.75
2022-09-04T05:16:09.351Z,0.65
2022-09-04T05:16:42.901Z,0.50
2022-09-04T05:17:14.547Z,0.60
2022-09-04T05:17:47.040Z,0.98
2022-09-04T05:18:16.248Z,1.00
2022-09-04T05:18:45.282Z,0.60
2022-09-04T05:19:15.397Z,0.90
2022-09-04T05:19:46.504Z,0.80
2022-09-04T05:20:25.615Z,1.02
2022-09-04T05:20:54.131Z,0.57
2022-09-04T05:21:22.680Z,1.20
2022-09-04T05:21:52.145Z,0.80
2022-09-04T05:22:20.870Z,0.70
2022-09-04T05:22:47.541Z,0.82
2022-09-04T05:23:19.437Z,0.70
2022-09-04T05:23:54.544Z,0.73
2022-09-04T05:24:23.634Z,0.73
2022-09-04T05:24:56.158Z,0.70
2022-09-04T05:25:26.603Z,0.60
2022-09-04T05:25:54.454Z,0.70
2022-09-04T05:26:26.100Z,0.65
2022-09-04T05:26:56.509Z,0.70
2022-09-04T05:27:39.626Z,0.77
2022-09-04T05:28:10.652Z,1.00
2022-09-04T05:28:46.403Z,0.80
2022-09-04T05:29:17.314Z,0.90
2022-09-04T05:29:51.634Z,0.80
2022-09-04T05:30:18.296Z,0.90
2022-09-04T05:30:48.262Z,0.82
2022-09-04T05:31:19.982Z,0.90
2022-09-04T05:31:52.351Z,0.73
2022-09-04T05:32:21.839Z,0.80
2022-09-04T05:32:53.490Z,0.65
2022-09-04T05:33:26.051Z,1.10
2022-09-04T05:33:57.245Z,0.70
2022-09-04T05:34:26.592Z,0.77
2022-09-04T05:35:02.126Z,0.80
2022-09-04T05:35:37.086Z,0.60
2022-09-04T05:36:08.774Z,0.70
2022-09-04T05:36:44.972Z,0.80
2022-09-04T05:37:13.349Z,0.85
2022-09-04T05:37:41.709Z,0.77
2022-09-04T05:38:11.137Z,0.70
2022-09-04T05:38:40.803Z,0.75
2022-09-04T05:39:10.572Z,0.90
2022-09-04T05:39:41.452Z,0.73
2022-09-04T05:40:11.254Z,0.80
2022-09-04T05:40:47.883Z,0.95
2022-09-04T05:41:24.574Z,0.80
2022-09-04T05:42:09.633Z,0.80
2022-09-04T05:42:58.783Z,0.65
2022-09-04T05:43:33.495Z,0.65
2022-09-04T05:44:18.615Z,0.98
2022-09-04T05:44:54.598Z,0.80
2022-09-04T05:45:24.873Z,0.70
2022-09-04T05:46:00.063Z,0.65
2022-09-04T05:46:38.882Z,0.98
2022-09-04T05:47:09.902Z,0.88
2022-09-04T05:47:43.429Z,0.50
2022-09-04T05:48:16.461Z,0.63
2022-09-04T05:48:46.809Z,0.88
2022-09-04T05:49:18.285Z,0.63
2022-09-04T05:49:59.384Z,0.68
2022-09-04T05:50:32.937Z,0.60
2022-09-04T05:51:07.139Z,0.70
2022-09-04T05:51:54.523Z,0.60
2022-09-04T05:52:52.708Z,0.80
2022-09-04T05:53:41.238Z,0.90
2022-09-04T05:54:26.518Z,0.60
2022-09-04T05:55:16.130Z,0.70
2022-09-04T05:55:55.196Z,0.70
2022-09-04T05:56:39.947Z,0.85
2022-09-04T05:57:15.241Z,0.73
2022-09-04T05:57:51.959Z,0.75
2022-09-04T05:58:29.415Z,0.82
2022-09-04T05:59:12.483Z,0.68
2022-09-04T06:00:16.133Z,0.70
2022-09-04T06:00:50.809Z,0.70
2022-09-04T06:01:27.918Z,0.75
2022-09-04T06:02:33.183Z,0.75
2022-09-04T06:03:14.690Z,1.00
2022-09-04T06:04:02.504Z,0.60
2022-09-04T06:04:39.085Z,0.70
2022-09-04T06:05:13.389Z,0.85
2022-09-04T06:05:47.179Z,0.90
2022-09-04T06:06:19.126Z,0.73
2022-09-04T06:06:48.288Z,0.52
2022-09-04T06:07:17.761Z,0.70
2022-09-04T06:07:52.420Z,1.30
2022-09-04T06:08:29.917Z,0.73
2022-09-04T06:09:22.778Z,0.60
2022-09-04T06:09:58.474Z,0.68
2022-09-04T06:10:27.371Z,0.80
2022-09-04T06:11:02.108Z,0.60
2022-09-04T06:11:51.532Z,0.73
2022-09-04T06:12:36.151Z,0.70
2022-09-04T06:13:24.922Z,1.00
2022-09-04T06:14:07.084Z,0.90
2022-09-04T06:14:45.637Z,0.88
2022-09-04T06:15:16.243Z,1.00
2022-09-04T06:15:49.878Z,0.90
2022-09-04T06:16:28.067Z,0.70
2022-09-04T06:17:05.018Z,1.10
2022-09-04T06:17:37.440Z,0.57
2022-09-04T06:18:24.425Z,0.90
2022-09-04T06:19:01.579Z,0.75
2022-09-04T06:19:38.657Z,0.80
2022-09-04T06:20:34.536Z,0.70
2022-09-04T06:21:17.335Z,0.57
2022-09-04T06:21:54.571Z,0.55
2022-09-04T06:22:53.809Z,0.50
2022-09-04T06:23:37.187Z,0.70
2022-09-04T06:24:26.483Z,0.90
2022-09-04T06:25:05.554Z,0.90
2022-09-04T06:25:49.654Z,0.40
2022-09-04T06:26:48.510Z,0.82
2022-09-04T06:27:23.082Z,0.70
2022-09-04T06:28:03.217Z,0.50
2022-09-04T06:28:41.164Z,0.82
2022-09-04T06:29:17.630Z,0.73
2022-09-04T06:30:07.766Z,0.68
2022-09-04T06:30:38.392Z,0.80
2022-09-04T06:31:07.601Z,0.80
2022-09-04T06:32:04.235Z,0.73
2022-09-04T06:32:51.382Z,0.80
2022-09-04T06:33:49.849Z,0.50
2022-09-04T06:34:22.507Z,0.60
2022-09-04T06:35:09.483Z,0.77
2022-09-04T06:35:45.376Z,0.70
2022-09-04T06:36:25.925Z,0.70
2022-09-04T06:37:04.108Z,1.00
2022-09-04T06:37:38.277Z,0.77
2022-09-04T06:38:20.217Z,0.60
2022-09-04T06:38:59.991Z,0.70
2022-09-04T06:39:39.784Z,0.80
2022-09-04T06:40:17.794Z,0.80
2022-09-04T06:40:51.654Z,0.70
2022-09-04T06:41:32.888Z,0.90
2022-09-04T06:42:08.247Z,1.00
2022-09-04T06:42:47.810Z,0.60
2022-09-04T06:43:17.877Z,0.77
2022-09-04T06:43:48.810Z,0.70
2022-09-04T06:44:24.620Z,0.60
2022-09-04T06:44:58.131Z,0.60
2022-09-04T06:45:30.975Z,0.60
2022-09-04T06:46:03.563Z,0.60
2022-09-04T06:46:34.477Z,0.90
2022-09-04T06:47:10.969Z,0.50
2022-09-04T06:47:43.811Z,0.75
2022-09-04T06:48:16.839Z,0.75
2022-09-04T06:48:53.150Z,0.75
2022-09-04T06:49:21.303Z,0.80
2022-09-04T06:49:59.394Z,0.60
2022-09-04T06:50:30.972Z,0.68
2022-09-04T06:51:01.827Z,0.90
2022-09-04T06:51:37.641Z,0.65
2022-09-04T06:52:15.179Z,0.70
2022-09-04T06:52:49.278Z,0.50
2022-09-04T06:53:19.192Z,0.55
2022-09-04T06:53:56.767Z,0.50
2022-09-04T06:54:34.139Z,0.60
2022-09-04T06:55:00.455Z,0.60
2022-09-04T06:55:33.392Z,0.80
2022-09-04T06:56:11.348Z,0.70
2022-09-04T06:56:58.526Z,0.70
2022-09-04T06:57:46.636Z,0.60
2022-09-04T06:58:46.220Z,0.88
2022-09-04T06:59:38.785Z,0.80
2022-09-04T07:00:07.477Z,0.70
2022-09-04T07:00:39.034Z,0.60
2022-09-04T07:01:08.111Z,0.50
2022-09-04T07:01:40.503Z,0.68
2022-09-04T07:02:17.222Z,0.50
2022-09-04T07:03:09.404Z,0.60
2022-09-04T07:03:44.932Z,0.90
2022-09-04T07:04:21.072Z,0.60
2022-09-04T07:04:57.426Z,0.80
2022-09-04T07:05:24.802Z,0.57
2022-09-04T07:05:57.388Z,0.50
2022-09-04T07:06:24.773Z,0.88
2022-09-04T07:06:58.741Z,0.80
2022-09-04T07:07:28.401Z,0.68
2022-09-04T07:08:03.424Z,0.90
2022-09-04T07:08:38.856Z,0.77
2022-09-04T07:09:08.153Z,0.63
2022-09-04T07:09:36.414Z,0.70
2022-09-04T07:10:04.275Z,0.70
2022-09-04T07:10:33.248Z,0.90
2022-09-04T07:11:09.563Z,0.80
2022-09-04T07:11:51.188Z,0.80
2022-09-04T07:12:39.601Z,0.73
2022-09-04T07:13:23.427Z,0.98
2022-09-04T07:14:00.106Z,0.70
2022-09-04T07:14:36.073Z,0.75
2022-09-04T07:15:28.962Z,1.20
2022-09-04T07:16:09.564Z,0.63
2022-09-04T07:16:41.081Z,0.68
2022-09-04T07:17:11.233Z,0.77
2022-09-04T07:17:39.427Z,0.60
2022-09-04T07:18:09.561Z,0.60
2022-09-04T07:18:48.249Z,0.57
2022-09-04T07:19:43.353Z,0.60
2022-09-04T07:20:17.047Z,0.88
2022-09-04T07:20:52.708Z,0.52
2022-09-04T07:21:23.591Z,0.60
2022-09-04T07:21:58.852Z,0.90
2022-09-04T07:22:45.988Z,0.88
2022-09-04T07:23:33.931Z,0.73
2022-09-04T07:24:03.244Z,0.40
2022-09-04T07:25:03.799Z,0.63
2022-09-04T07:25:33.861Z,1.15
2022-09-04T07:26:13.426Z,0.88
2022-09-04T07:26:44.746Z,0.60
2022-09-04T07:27:15.645Z,0.77
2022-09-04T07:27:52.821Z,0.63
2022-09-04T07:28:32.211Z,0.63
2022-09-04T07:29:25.659Z,0.55
2022-09-04T07:29:52.876Z,0.73
2022-09-04T07:30:16.297Z,0.40
2022-09-04T07:30:44.213Z,0.50
2022-09-04T07:31:12.522Z,0.40
2022-09-04T07:31:39.600Z,0.50
2022-09-04T07:32:08.536Z,0.60
2022-09-04T07:32:37.102Z,0.55
2022-09-04T07:33:02.381Z,0.80
2022-09-04T07:33:36.093Z,0.50
2022-09-04T07:34:06.691Z,0.70
2022-09-04T07:34:40.427Z,0.77
2022-09-04T07:35:09.701Z,0.52
2022-09-04T07:35:39.230Z,0.80
2022-09-04T07:36:12.085Z,0.73
2022-09-04T07:36:41.579Z,0.70
2022-09-04T07:37:10.913Z,0.50
2022-09-04T07:37:40.794Z,0.40